createdAt,value
2018-01-21T00:00:04.137Z,6.70
2018-01-21T00:01:04.164Z,6.80
2018-01-21T00:02:04.190Z,6.60
2018-01-21T00:03:04.218Z,6.60
2018-01-21T00:04:04.244Z,6.50
2018-01-21T00:05:04.272Z,7.20
2018-01-21T00:06:04.299Z,6.40
2018-01-21T00:07:04.326Z,7.00
2018-01-21T00:08:04.354Z,6.10
2018-01-21T00:09:04.380Z,6.60
2018-01-21T00:10:04.407Z,6.30
2018-01-21T00:11:04.435Z,6.20
2018-01-21T00:12:04.462Z,6.20
2018-01-21T00:13:04.488Z,6.00
2018-01-21T00:14:04.516Z,5.80
2018-01-21T00:15:04.543Z,6.10
2018-01-21T00:16:04.569Z,5.40
2018-01-21T00:17:04.596Z,6.20
2018-01-21T00:18:04.624Z,5.80
2018-01-21T00:19:04.652Z,6.30
2018-01-21T00:20:04.678Z,6.00
2018-01-21T00:21:04.705Z,5.90
2018-01-21T00:22:04.732Z,6.20
2018-01-21T00:23:04.758Z,5.70
2018-01-21T00:24:04.787Z,6.50
2018-01-21T00:25:04.813Z,6.70
2018-01-21T00:26:04.840Z,6.20
2018-01-21T00:27:04.867Z,6.10
2018-01-21T00:28:04.895Z,6.30
2018-01-21T00:29:04.921Z,6.20
2018-01-21T00:30:04.949Z,5.40
2018-01-21T00:31:04.975Z,5.60
2018-01-21T00:32:05.002Z,6.10
2018-01-21T00:33:05.029Z,5.70
2018-01-21T00:34:05.057Z,6.30
2018-01-21T00:35:05.085Z,5.90
2018-01-21T00:36:05.111Z,5.40
2018-01-21T00:37:05.138Z,5.40
2018-01-21T00:38:05.165Z,5.60
2018-01-21T00:39:05.193Z,5.60
2018-01-21T00:40:05.221Z,5.10
2018-01-21T00:41:05.247Z,5.60
2018-01-21T00:42:05.275Z,5.30
2018-01-21T00:43:05.301Z,6.10
2018-01-21T00:44:05.329Z,6.30
2018-01-21T00:45:05.380Z,5.10
2018-01-21T00:46:05.383Z,6.10
2018-01-21T00:47:05.409Z,5.50
2018-01-21T00:48:05.437Z,5.70
2018-01-21T00:49:05.464Z,5.30
2018-01-21T00:50:05.490Z,5.60
2018-01-21T00:51:05.519Z,5.50
2018-01-21T00:52:05.546Z,5.70
2018-01-21T00:53:05.572Z,5.30
2018-01-21T00:54:05.600Z,5.20
2018-01-21T00:55:05.627Z,5.10
2018-01-21T00:56:05.656Z,4.70
2018-01-21T00:57:05.680Z,4.50
2018-01-21T00:58:05.708Z,4.80
2018-01-21T00:59:05.735Z,5.00
2018-01-21T01:00:05.765Z,4.60
2018-01-21T01:01:05.792Z,4.80
2018-01-21T01:02:05.821Z,4.90
2018-01-21T01:03:05.845Z,4.70
2018-01-21T01:04:05.873Z,4.30
2018-01-21T01:05:05.899Z,4.30
2018-01-21T01:06:05.925Z,4.70
2018-01-21T01:07:05.954Z,4.20
2018-01-21T01:08:05.982Z,4.10
2018-01-21T01:09:06.007Z,4.80
2018-01-21T01:10:06.035Z,4.00
2018-01-21T01:11:06.063Z,4.20
2018-01-21T01:12:06.090Z,3.90
2018-01-21T01:13:06.117Z,4.00
2018-01-21T01:14:06.144Z,4.20
2018-01-21T01:15:06.171Z,4.10
2018-01-21T01:16:06.198Z,4.30
2018-01-21T01:17:06.225Z,3.80
2018-01-21T01:18:06.252Z,4.00
2018-01-21T01:19:06.285Z,4.30
2018-01-21T01:20:06.307Z,3.70
2018-01-21T01:21:06.334Z,4.70
2018-01-21T01:22:06.360Z,4.00
2018-01-21T01:23:06.389Z,4.40
2018-01-21T01:24:06.415Z,4.30
2018-01-21T01:25:06.442Z,3.50
2018-01-21T01:26:06.469Z,4.10
2018-01-21T01:27:06.497Z,3.80
2018-01-21T01:28:06.525Z,3.50
2018-01-21T01:29:06.552Z,3.70
2018-01-21T01:30:06.579Z,4.00
2018-01-21T01:31:06.605Z,3.90
2018-01-21T01:32:06.634Z,3.60
2018-01-21T01:33:06.660Z,3.10
2018-01-21T01:34:06.688Z,3.60
2018-01-21T01:35:06.717Z,3.20
2018-01-21T01:36:06.742Z,3.70
2018-01-21T01:37:06.771Z,3.10
2018-01-21T01:38:06.796Z,3.10
2018-01-21T01:39:06.827Z,3.20
2018-01-21T01:40:06.851Z,4.90
2018-01-21T01:41:06.877Z,3.00
2018-01-21T01:42:06.905Z,2.90
2018-01-21T01:43:06.932Z,3.50
2018-01-21T01:44:06.960Z,3.10
2018-01-21T01:45:06.985Z,3.30
2018-01-21T01:46:07.014Z,2.70
2018-01-21T01:47:07.042Z,3.10
2018-01-21T01:48:07.069Z,2.60
2018-01-21T01:49:07.094Z,2.70
2018-01-21T01:50:07.122Z,2.20
2018-01-21T01:51:07.149Z,2.40
2018-01-21T01:52:07.177Z,2.40
2018-01-21T01:53:07.203Z,3.20
2018-01-21T01:54:07.232Z,2.30
2018-01-21T01:55:07.258Z,2.90
2018-01-21T01:56:07.286Z,2.90
2018-01-21T01:57:07.313Z,2.40
2018-01-21T01:58:07.341Z,2.40
2018-01-21T01:59:07.369Z,2.40
2018-01-21T02:00:07.397Z,2.40
2018-01-21T02:01:07.423Z,2.40
2018-01-21T02:02:07.450Z,2.40
2018-01-21T02:03:07.476Z,2.60
2018-01-21T02:04:07.505Z,2.60
2018-01-21T02:05:07.532Z,2.50
2018-01-21T02:06:07.559Z,2.40
2018-01-21T02:07:07.587Z,2.20
2018-01-21T02:08:07.615Z,2.50
2018-01-21T02:09:07.645Z,2.50
2018-01-21T02:10:07.668Z,2.10
2018-01-21T02:11:07.695Z,2.20
2018-01-21T02:12:07.726Z,1.70
2018-01-21T02:13:07.750Z,2.70
2018-01-21T02:14:07.778Z,2.40
2018-01-21T02:15:07.806Z,2.50
2018-01-21T02:16:07.834Z,2.60
2018-01-21T02:17:07.859Z,2.90
2018-01-21T02:18:07.886Z,2.60
2018-01-21T02:19:07.914Z,2.20
2018-01-21T02:20:07.943Z,2.10
2018-01-21T02:21:07.969Z,3.10
2018-01-21T02:22:07.997Z,2.20
2018-01-21T02:23:08.024Z,2.40
2018-01-21T02:24:08.053Z,2.80
2018-01-21T02:25:08.078Z,2.40
2018-01-21T02:26:08.106Z,3.00
2018-01-21T02:27:08.135Z,2.90
2018-01-21T02:28:08.164Z,2.70
2018-01-21T02:29:08.189Z,2.70
2018-01-21T02:30:08.217Z,2.80
2018-01-21T02:31:08.245Z,2.80
2018-01-21T02:32:08.274Z,2.90
2018-01-21T02:33:08.300Z,3.50
2018-01-21T02:34:08.329Z,4.40
2018-01-21T02:35:08.356Z,3.80
2018-01-21T02:36:08.389Z,2.90
2018-01-21T02:37:08.410Z,3.30
2018-01-21T02:38:08.438Z,4.30
2018-01-21T02:39:08.473Z,3.30
2018-01-21T02:40:08.495Z,3.70
2018-01-21T02:41:08.523Z,4.30
2018-01-21T02:42:08.551Z,3.80
2018-01-21T02:43:08.578Z,3.50
2018-01-21T02:44:08.606Z,3.30
2018-01-21T02:45:08.634Z,4.00
2018-01-21T02:46:08.662Z,4.60
2018-01-21T02:47:08.690Z,4.20
2018-01-21T02:48:08.717Z,4.80
2018-01-21T02:49:08.745Z,4.50
2018-01-21T02:50:08.773Z,3.60
2018-01-21T02:51:08.809Z,4.90
2018-01-21T02:52:08.829Z,3.80
2018-01-21T02:53:08.857Z,3.60
2018-01-21T02:54:08.883Z,4.00
2018-01-21T02:55:08.914Z,4.30
2018-01-21T02:56:08.941Z,3.60
2018-01-21T02:57:08.967Z,3.40
2018-01-21T02:58:08.996Z,3.80
2018-01-21T02:59:09.025Z,3.70
2018-01-21T03:00:09.051Z,3.40
2018-01-21T03:01:09.079Z,3.70
2018-01-21T03:02:09.107Z,3.80
2018-01-21T03:03:09.138Z,3.90
2018-01-21T03:04:09.164Z,5.20
2018-01-21T03:05:09.190Z,6.50
2018-01-21T03:06:09.220Z,5.70
2018-01-21T03:07:09.249Z,6.20
2018-01-21T03:08:09.278Z,6.40
2018-01-21T03:09:09.303Z,6.00
2018-01-21T03:10:09.330Z,6.20
2018-01-21T03:11:09.360Z,4.60
2018-01-21T03:12:09.387Z,4.50
2018-01-21T03:13:09.414Z,4.60
2018-01-21T03:14:09.442Z,3.90
2018-01-21T03:15:09.471Z,4.20
2018-01-21T03:16:09.498Z,4.50
2018-01-21T03:17:09.525Z,4.20
2018-01-21T03:18:09.555Z,3.80
2018-01-21T03:19:09.582Z,3.60
2018-01-21T03:20:09.611Z,3.90
2018-01-21T03:21:09.637Z,3.50
2018-01-21T03:22:09.666Z,3.20
2018-01-21T03:23:09.694Z,4.10
2018-01-21T03:24:09.723Z,3.70
2018-01-21T03:25:09.750Z,3.40
2018-01-21T03:26:09.777Z,3.00
2018-01-21T03:27:09.806Z,3.40
2018-01-21T03:28:09.834Z,3.20
2018-01-21T03:29:09.861Z,3.30
2018-01-21T03:30:09.889Z,3.30
2018-01-21T03:31:09.931Z,3.70
2018-01-21T03:32:09.945Z,3.50
2018-01-21T03:33:09.974Z,3.40
2018-01-21T03:34:10.000Z,3.70
2018-01-21T03:35:10.028Z,3.30
2018-01-21T03:36:10.057Z,3.80
2018-01-21T03:37:10.084Z,3.70
2018-01-21T03:38:10.111Z,3.90
2018-01-21T03:39:10.139Z,4.00
2018-01-21T03:40:10.166Z,4.40
2018-01-21T03:41:10.192Z,4.00
2018-01-21T03:42:10.221Z,3.60
2018-01-21T03:43:10.249Z,3.70
2018-01-21T03:44:10.276Z,3.90
2018-01-21T03:45:10.303Z,3.70
2018-01-21T03:46:10.330Z,4.10
2018-01-21T03:47:10.359Z,4.00
2018-01-21T03:48:10.386Z,4.50
2018-01-21T03:49:10.413Z,3.30
2018-01-21T03:50:10.440Z,4.00
2018-01-21T03:51:10.468Z,3.50
2018-01-21T03:52:10.495Z,3.80
2018-01-21T03:53:10.523Z,4.20
2018-01-21T03:54:10.550Z,4.40
2018-01-21T03:55:10.578Z,4.40
2018-01-21T03:56:10.604Z,3.80
2018-01-21T03:57:10.632Z,3.80
2018-01-21T03:58:10.660Z,3.60
2018-01-21T03:59:10.688Z,3.70
2018-01-21T04:00:10.716Z,3.60
2018-01-21T04:01:10.740Z,4.30
2018-01-21T04:02:10.770Z,4.00
2018-01-21T04:03:10.796Z,4.00
2018-01-21T04:04:10.825Z,4.20
2018-01-21T04:05:10.850Z,4.00
2018-01-21T04:06:10.879Z,4.30
2018-01-21T04:07:10.906Z,4.30
2018-01-21T04:08:10.934Z,4.80
2018-01-21T04:09:10.993Z,4.90
2018-01-21T04:10:10.987Z,4.40
2018-01-21T04:11:11.015Z,4.80
2018-01-21T04:12:11.042Z,4.30
2018-01-21T04:13:11.069Z,6.10
2018-01-21T04:14:11.096Z,4.90
2018-01-21T04:15:11.124Z,4.70
2018-01-21T04:16:11.152Z,4.70
2018-01-21T04:17:11.178Z,5.10
2018-01-21T04:18:11.204Z,5.00
2018-01-21T04:19:11.232Z,4.70
2018-01-21T04:20:11.260Z,5.70
2018-01-21T04:21:11.287Z,5.00
2018-01-21T04:22:11.314Z,5.50
2018-01-21T04:23:11.340Z,5.50
2018-01-21T04:24:11.370Z,5.10
2018-01-21T04:25:11.395Z,5.10
2018-01-21T04:26:11.423Z,5.70
2018-01-21T04:27:11.449Z,5.50
2018-01-21T04:28:11.476Z,5.70
2018-01-21T04:29:11.503Z,5.30
2018-01-21T04:30:11.530Z,5.10
2018-01-21T04:31:11.558Z,5.70
2018-01-21T04:32:11.585Z,5.40
2018-01-21T04:33:11.611Z,5.70
2018-01-21T04:34:11.638Z,6.00
2018-01-21T04:35:11.664Z,5.70
2018-01-21T04:36:11.692Z,6.00
2018-01-21T04:37:11.718Z,6.30
2018-01-21T04:38:11.745Z,6.40
2018-01-21T04:39:11.781Z,6.90
2018-01-21T04:40:11.799Z,5.80
2018-01-21T04:41:11.825Z,6.00
2018-01-21T04:42:11.853Z,6.50
2018-01-21T04:43:11.880Z,6.10
2018-01-21T04:44:11.906Z,6.20
2018-01-21T04:45:11.932Z,6.10
2018-01-21T04:46:11.958Z,6.70
2018-01-21T04:47:11.986Z,6.90
2018-01-21T04:48:12.012Z,6.60
2018-01-21T04:49:12.038Z,6.90
2018-01-21T04:50:12.066Z,7.40
2018-01-21T04:51:12.093Z,5.90
2018-01-21T04:52:12.124Z,6.40
2018-01-21T04:53:12.146Z,7.20
2018-01-21T04:54:12.173Z,6.90
2018-01-21T04:55:12.199Z,6.70
2018-01-21T04:56:12.226Z,7.20
2018-01-21T04:57:12.252Z,6.60
2018-01-21T04:58:12.283Z,6.90
2018-01-21T04:59:12.306Z,6.60
2018-01-21T05:00:12.333Z,7.10
2018-01-21T05:01:12.359Z,7.00
2018-01-21T05:02:12.386Z,6.60
2018-01-21T05:03:12.413Z,6.30
2018-01-21T05:04:12.439Z,7.10
2018-01-21T05:05:12.466Z,6.10
2018-01-21T05:06:12.492Z,6.60
2018-01-21T05:07:12.519Z,7.10
2018-01-21T05:08:12.546Z,6.30
2018-01-21T05:09:12.572Z,7.10
2018-01-21T05:10:12.599Z,6.70
2018-01-21T05:11:12.626Z,6.30
2018-01-21T05:12:12.652Z,6.60
2018-01-21T05:13:12.679Z,6.40
2018-01-21T05:14:12.704Z,5.90
2018-01-21T05:15:12.734Z,6.10
2018-01-21T05:16:12.758Z,6.50
2018-01-21T05:17:12.784Z,6.50
2018-01-21T05:18:12.811Z,6.30
2018-01-21T05:19:12.838Z,6.50
2018-01-21T05:20:12.865Z,5.90
2018-01-21T05:21:12.889Z,5.90
2018-01-21T05:22:12.916Z,5.60
2018-01-21T05:23:12.942Z,6.60
2018-01-21T05:24:12.970Z,6.50
2018-01-21T05:25:12.997Z,6.20
2018-01-21T05:26:13.023Z,5.80
2018-01-21T05:27:13.050Z,6.00
2018-01-21T05:28:13.077Z,6.20
2018-01-21T05:29:13.103Z,6.00
2018-01-21T05:30:13.130Z,5.70
2018-01-21T05:31:13.155Z,6.70
2018-01-21T05:32:13.183Z,5.20
2018-01-21T05:33:13.209Z,6.10
2018-01-21T05:34:13.236Z,5.90
2018-01-21T05:35:13.262Z,5.00
2018-01-21T05:36:13.289Z,5.10
2018-01-21T05:37:13.315Z,5.50
2018-01-21T05:38:13.342Z,5.40
2018-01-21T05:39:13.369Z,5.30
2018-01-21T05:40:13.397Z,5.00
2018-01-21T05:41:13.422Z,5.80
2018-01-21T05:42:13.449Z,5.10
2018-01-21T05:43:13.475Z,4.80
2018-01-21T05:44:13.502Z,4.50
2018-01-21T05:45:13.528Z,4.10
2018-01-21T05:46:13.555Z,5.60
2018-01-21T05:47:13.582Z,4.70
2018-01-21T05:48:13.608Z,4.50
2018-01-21T05:49:13.640Z,4.20
2018-01-21T05:50:13.661Z,4.00
2018-01-21T05:51:13.688Z,4.00
2018-01-21T05:52:13.715Z,4.30
2018-01-21T05:53:13.741Z,4.70
2018-01-21T05:54:13.766Z,4.10
2018-01-21T05:55:13.793Z,4.20
2018-01-21T05:56:13.821Z,4.00
2018-01-21T05:57:13.846Z,4.40
2018-01-21T05:58:13.873Z,3.60
2018-01-21T05:59:13.899Z,3.40
2018-01-21T06:00:13.963Z,4.00
2018-01-21T06:01:13.953Z,3.30
2018-01-21T06:02:13.979Z,3.80
2018-01-21T06:03:14.006Z,3.60
2018-01-21T06:04:14.032Z,3.40
2018-01-21T06:05:14.059Z,3.00
2018-01-21T06:06:14.085Z,3.40
2018-01-21T06:07:14.111Z,3.30
2018-01-21T06:08:14.141Z,3.30
2018-01-21T06:09:14.166Z,3.30
2018-01-21T06:10:14.191Z,3.10
2018-01-21T06:11:14.219Z,3.40
2018-01-21T06:12:14.245Z,3.20
2018-01-21T06:13:14.271Z,3.30
2018-01-21T06:14:14.297Z,3.00
2018-01-21T06:15:14.325Z,3.30
2018-01-21T06:16:14.351Z,3.20
2018-01-21T06:17:14.376Z,3.50
2018-01-21T06:18:14.403Z,3.40
2018-01-21T06:19:14.430Z,3.30
2018-01-21T06:20:14.457Z,3.40
2018-01-21T06:21:14.481Z,3.30
2018-01-21T06:22:14.509Z,3.30
2018-01-21T06:23:14.537Z,3.10
2018-01-21T06:24:14.562Z,3.00
2018-01-21T06:25:14.588Z,3.10
2018-01-21T06:26:14.615Z,3.90
2018-01-21T06:27:14.641Z,3.50
2018-01-21T06:28:14.668Z,3.40
2018-01-21T06:29:14.693Z,3.10
2018-01-21T06:30:14.721Z,3.10
2018-01-21T06:31:14.747Z,3.00
2018-01-21T06:32:14.773Z,2.90
2018-01-21T06:33:14.799Z,3.50
2018-01-21T06:34:14.826Z,3.30
2018-01-21T06:35:14.852Z,3.70
2018-01-21T06:36:14.879Z,3.70
2018-01-21T06:37:14.904Z,3.20
2018-01-21T06:38:14.933Z,3.70
2018-01-21T06:39:14.958Z,3.80
2018-01-21T06:40:14.986Z,3.30
2018-01-21T06:41:15.010Z,3.90
2018-01-21T06:42:15.035Z,3.30
2018-01-21T06:43:15.062Z,3.20
2018-01-21T06:44:15.090Z,3.60
2018-01-21T06:45:15.115Z,4.00
2018-01-21T06:46:15.143Z,3.70
2018-01-21T06:47:15.171Z,3.80
2018-01-21T06:48:15.195Z,3.00
2018-01-21T06:49:15.219Z,3.50
2018-01-21T06:50:15.246Z,3.60
2018-01-21T06:51:15.273Z,3.90
2018-01-21T06:52:15.299Z,3.60
2018-01-21T06:53:15.324Z,3.90
2018-01-21T06:54:15.351Z,3.50
2018-01-21T06:55:15.378Z,3.00
2018-01-21T06:56:15.405Z,3.30
2018-01-21T06:57:15.430Z,3.70
2018-01-21T06:58:15.457Z,4.30
2018-01-21T06:59:15.484Z,3.80
2018-01-21T07:00:15.513Z,3.80
2018-01-21T07:01:15.536Z,4.00
2018-01-21T07:02:15.560Z,3.70
2018-01-21T07:03:15.587Z,4.00
2018-01-21T07:04:15.616Z,3.60
2018-01-21T07:05:15.640Z,4.30
2018-01-21T07:06:15.667Z,4.00
2018-01-21T07:07:15.694Z,3.90
2018-01-21T07:08:15.720Z,3.70
2018-01-21T07:09:15.744Z,4.10
2018-01-21T07:10:15.772Z,3.90
2018-01-21T07:11:15.798Z,4.00
2018-01-21T07:12:15.825Z,3.90
2018-01-21T07:13:15.851Z,3.90
2018-01-21T07:14:15.877Z,3.70
2018-01-21T07:15:15.905Z,4.30
2018-01-21T07:16:15.930Z,4.30
2018-01-21T07:17:15.956Z,4.30
2018-01-21T07:18:15.984Z,3.90
2018-01-21T07:19:16.009Z,4.00
2018-01-21T07:20:16.039Z,4.70
2018-01-21T07:21:16.062Z,4.40
2018-01-21T07:22:16.088Z,3.90
2018-01-21T07:23:16.114Z,4.30
2018-01-21T07:24:16.148Z,4.40
2018-01-21T07:25:16.165Z,4.00
2018-01-21T07:26:16.191Z,4.00
2018-01-21T07:27:16.218Z,3.60
2018-01-21T07:28:16.245Z,3.80
2018-01-21T07:29:16.270Z,3.70
2018-01-21T07:30:16.296Z,4.10
2018-01-21T07:31:16.324Z,3.90
2018-01-21T07:32:16.350Z,4.10
2018-01-21T07:33:16.376Z,4.30
2018-01-21T07:34:16.402Z,4.40
2018-01-21T07:35:16.429Z,3.70
2018-01-21T07:36:16.455Z,4.50
2018-01-21T07:37:16.481Z,5.80
2018-01-21T07:38:16.507Z,4.20
2018-01-21T07:39:16.534Z,4.10
2018-01-21T07:40:16.561Z,4.00
2018-01-21T07:41:16.586Z,3.90
2018-01-21T07:42:16.612Z,3.40
2018-01-21T07:43:16.638Z,3.30
2018-01-21T07:44:16.665Z,4.00
2018-01-21T07:45:16.691Z,3.50
2018-01-21T07:46:16.716Z,3.40
2018-01-21T07:47:16.744Z,3.60
2018-01-21T07:48:16.769Z,3.40
2018-01-21T07:49:16.796Z,4.00
2018-01-21T07:50:16.822Z,3.40
2018-01-21T07:51:16.849Z,3.40
2018-01-21T07:52:16.876Z,3.20
2018-01-21T07:53:16.902Z,3.20
2018-01-21T07:54:16.928Z,3.30
2018-01-21T07:55:16.955Z,3.40
2018-01-21T07:56:16.981Z,3.60
2018-01-21T07:57:17.007Z,3.40
2018-01-21T07:58:17.034Z,3.50
2018-01-21T07:59:17.060Z,3.70
2018-01-21T08:00:17.087Z,3.40
2018-01-21T08:01:17.113Z,3.10
2018-01-21T08:02:17.139Z,3.20
2018-01-21T08:03:17.166Z,3.40
2018-01-21T08:04:17.191Z,4.30
2018-01-21T08:05:17.218Z,3.40
2018-01-21T08:06:17.244Z,3.20
2018-01-21T08:07:17.272Z,3.80
2018-01-21T08:08:17.298Z,4.10
2018-01-21T08:09:17.325Z,3.10
2018-01-21T08:10:17.354Z,4.00
2018-01-21T08:11:17.378Z,3.10
2018-01-21T08:12:17.404Z,3.30
2018-01-21T08:13:17.431Z,3.10
2018-01-21T08:14:17.455Z,3.50
2018-01-21T08:15:17.483Z,3.40
2018-01-21T08:16:17.510Z,3.00
2018-01-21T08:17:17.536Z,3.20
2018-01-21T08:18:17.563Z,4.00
2018-01-21T08:19:17.591Z,3.60
2018-01-21T08:20:17.617Z,4.20
2018-01-21T08:21:17.643Z,3.70
2018-01-21T08:22:17.669Z,3.60
2018-01-21T08:23:17.699Z,3.70
2018-01-21T08:24:17.727Z,3.50
2018-01-21T08:25:17.749Z,3.20
2018-01-21T08:26:17.779Z,3.40
2018-01-21T08:27:17.803Z,3.50
2018-01-21T08:28:17.830Z,3.10
2018-01-21T08:29:17.855Z,3.70
2018-01-21T08:30:17.883Z,3.50
2018-01-21T08:31:17.909Z,3.10
2018-01-21T08:32:17.936Z,3.30
2018-01-21T08:33:17.963Z,3.20
2018-01-21T08:34:17.989Z,4.10
2018-01-21T08:35:18.016Z,3.80
2018-01-21T08:36:18.043Z,3.50
2018-01-21T08:37:18.070Z,3.90
2018-01-21T08:38:18.096Z,4.00
2018-01-21T08:39:18.126Z,4.50
2018-01-21T08:40:18.151Z,4.20
2018-01-21T08:41:18.177Z,4.10
2018-01-21T08:42:18.204Z,4.00
2018-01-21T08:43:18.230Z,3.30
2018-01-21T08:44:18.260Z,5.10
2018-01-21T08:45:18.284Z,4.80
2018-01-21T08:46:18.313Z,4.20
2018-01-21T08:47:18.340Z,3.40
2018-01-21T08:48:18.367Z,3.00
2018-01-21T08:49:18.393Z,3.40
2018-01-21T08:50:18.420Z,3.70
2018-01-21T08:51:18.447Z,3.50
2018-01-21T08:52:18.477Z,3.40
2018-01-21T08:53:18.505Z,3.50
2018-01-21T08:54:18.529Z,3.40
2018-01-21T08:55:18.556Z,3.00
2018-01-21T08:56:18.583Z,3.80
2018-01-21T08:57:18.611Z,3.40
2018-01-21T08:58:18.637Z,3.30
2018-01-21T08:59:18.664Z,3.20
2018-01-21T09:00:18.691Z,3.50
2018-01-21T09:01:18.718Z,3.20
2018-01-21T09:02:18.745Z,3.70
2018-01-21T09:03:18.772Z,4.10
2018-01-21T09:04:18.799Z,4.50
2018-01-21T09:05:18.826Z,3.80
2018-01-21T09:06:18.853Z,4.10
2018-01-21T09:07:18.880Z,4.40
2018-01-21T09:08:18.911Z,2.80
2018-01-21T09:09:18.934Z,2.60
2018-01-21T09:10:18.961Z,3.70
2018-01-21T09:11:18.988Z,3.10
2018-01-21T09:12:19.016Z,3.60
2018-01-21T09:13:19.042Z,4.30
2018-01-21T09:14:19.069Z,3.50
2018-01-21T09:15:19.097Z,3.10
2018-01-21T09:16:19.125Z,3.90
2018-01-21T09:17:19.152Z,4.00
2018-01-21T09:18:19.178Z,4.30
2018-01-21T09:19:19.205Z,4.00
2018-01-21T09:20:19.231Z,2.90
2018-01-21T09:21:19.264Z,2.80
2018-01-21T09:22:19.285Z,5.00
2018-01-21T09:23:19.313Z,4.60
2018-01-21T09:24:19.340Z,2.90
2018-01-21T09:25:19.368Z,2.90
2018-01-21T09:26:19.392Z,2.70
2018-01-21T09:27:19.421Z,3.80
2018-01-21T09:28:19.448Z,3.50
2018-01-21T09:29:19.475Z,6.50
2018-01-21T09:30:19.503Z,4.00
2018-01-21T09:31:19.528Z,3.60
2018-01-21T09:32:19.560Z,4.20
2018-01-21T09:33:19.583Z,5.20
2018-01-21T09:34:19.611Z,3.80
2018-01-21T09:35:19.639Z,3.80
2018-01-21T09:36:19.670Z,3.90
2018-01-21T09:37:19.692Z,3.60
2018-01-21T09:38:19.726Z,5.00
2018-01-21T09:39:19.748Z,3.40
2018-01-21T09:40:19.775Z,5.60
2018-01-21T09:41:19.802Z,2.90
2018-01-21T09:42:19.830Z,5.90
2018-01-21T09:43:19.858Z,4.60
2018-01-21T09:44:19.886Z,5.20
2018-01-21T09:45:19.912Z,3.90
2018-01-21T09:46:19.941Z,4.60
2018-01-21T09:47:19.968Z,4.20
2018-01-21T09:48:19.997Z,4.10
2018-01-21T09:49:20.023Z,4.40
2018-01-21T09:50:20.051Z,3.30
2018-01-21T09:51:20.079Z,4.60
2018-01-21T09:52:20.107Z,3.30
2018-01-21T09:53:20.135Z,3.10
2018-01-21T09:54:20.164Z,2.40
2018-01-21T09:55:20.191Z,3.40
2018-01-21T09:56:20.222Z,3.10
2018-01-21T09:57:20.247Z,2.50
2018-01-21T09:58:20.276Z,4.00
2018-01-21T09:59:20.305Z,2.80
2018-01-21T10:00:20.339Z,3.60
2018-01-21T10:01:20.361Z,3.60
2018-01-21T10:02:20.390Z,3.90
2018-01-21T10:03:20.418Z,3.10
2018-01-21T10:04:20.447Z,3.60
2018-01-21T10:05:20.475Z,2.80
2018-01-21T10:06:20.504Z,3.50
2018-01-21T10:07:20.533Z,4.40
2018-01-21T10:08:20.565Z,3.60
2018-01-21T10:09:20.592Z,3.40
2018-01-21T10:10:20.623Z,3.20
2018-01-21T10:11:20.652Z,4.90
2018-01-21T10:12:20.681Z,3.70
2018-01-21T10:13:20.713Z,3.20
2018-01-21T10:14:20.741Z,4.20
2018-01-21T10:15:20.771Z,3.10
2018-01-21T10:16:20.804Z,3.00
2018-01-21T10:17:20.833Z,4.10
2018-01-21T10:18:20.865Z,3.40
2018-01-21T10:19:20.897Z,3.50
2018-01-21T10:20:20.929Z,3.50
2018-01-21T10:21:20.960Z,3.30
2018-01-21T10:22:20.992Z,2.90
2018-01-21T10:23:21.025Z,3.50
2018-01-21T10:24:21.060Z,2.80
2018-01-21T10:25:21.094Z,4.20
2018-01-21T10:26:21.128Z,5.20
2018-01-21T10:27:21.165Z,3.50
2018-01-21T10:28:21.200Z,3.30
2018-01-21T10:29:21.235Z,3.50
2018-01-21T10:30:21.272Z,3.30
2018-01-21T10:31:21.309Z,3.50
2018-01-21T10:32:21.346Z,3.80
2018-01-21T10:33:21.384Z,3.20
2018-01-21T10:34:21.429Z,2.90
2018-01-21T10:35:21.461Z,5.30
2018-01-21T10:36:21.501Z,3.10
2018-01-21T10:37:21.540Z,5.60
2018-01-21T10:38:21.580Z,2.40
2018-01-21T10:39:21.620Z,2.40
2018-01-21T10:40:21.660Z,2.90
2018-01-21T10:41:21.700Z,2.40
2018-01-21T10:42:21.740Z,2.40
2018-01-21T10:43:21.783Z,3.40
2018-01-21T10:44:21.824Z,2.90
2018-01-21T10:45:21.864Z,3.30
2018-01-21T10:46:21.907Z,2.90
2018-01-21T10:47:21.988Z,2.70
2018-01-21T10:48:21.991Z,3.70
2018-01-21T10:49:22.032Z,3.20
2018-01-21T10:50:22.075Z,3.30
2018-01-21T10:51:22.118Z,3.30
2018-01-21T10:52:22.163Z,4.60
2018-01-21T10:53:22.201Z,3.80
2018-01-21T10:54:22.246Z,2.60
2018-01-21T10:55:22.288Z,2.30
2018-01-21T10:56:22.331Z,3.10
2018-01-21T10:57:22.374Z,2.70
2018-01-21T10:58:22.417Z,2.90
2018-01-21T10:59:22.459Z,3.80
2018-01-21T11:00:22.505Z,2.30
2018-01-21T11:01:22.546Z,2.60
2018-01-21T11:02:22.588Z,2.60
2018-01-21T11:03:22.631Z,4.60
2018-01-21T11:04:22.673Z,3.60
2018-01-21T11:05:22.714Z,3.90
2018-01-21T11:06:22.755Z,3.20
2018-01-21T11:07:22.801Z,3.50
2018-01-21T11:08:22.836Z,3.50
2018-01-21T11:09:22.877Z,2.40
2018-01-21T11:10:22.917Z,5.30
2018-01-21T11:11:22.956Z,3.80
2018-01-21T11:12:22.995Z,4.10
2018-01-21T11:13:23.033Z,4.10
2018-01-21T11:14:23.072Z,2.50
2018-01-21T11:15:23.109Z,4.30
2018-01-21T11:16:23.147Z,2.40
2018-01-21T11:17:23.183Z,2.50
2018-01-21T11:18:23.220Z,3.50
2018-01-21T11:19:23.256Z,3.00
2018-01-21T11:20:23.292Z,3.20
2018-01-21T11:21:23.328Z,3.20
2018-01-21T11:22:23.362Z,2.90
2018-01-21T11:23:23.397Z,3.00
2018-01-21T11:24:23.474Z,2.80
2018-01-21T11:25:23.467Z,3.50
2018-01-21T11:26:23.505Z,3.60
2018-01-21T11:27:23.535Z,2.40
2018-01-21T11:28:23.574Z,3.20
2018-01-21T11:29:23.601Z,3.60
2018-01-21T11:30:23.636Z,4.20
2018-01-21T11:31:23.670Z,2.70
2018-01-21T11:32:23.703Z,6.00
2018-01-21T11:33:23.734Z,4.80
2018-01-21T11:34:23.772Z,2.30
2018-01-21T11:35:23.801Z,3.00
2018-01-21T11:36:23.840Z,2.60
2018-01-21T11:37:23.865Z,2.60
2018-01-21T11:38:23.898Z,5.00
2018-01-21T11:39:23.931Z,2.40
2018-01-21T11:40:23.962Z,3.50
2018-01-21T11:41:23.994Z,3.90
2018-01-21T11:42:24.025Z,2.90
2018-01-21T11:43:24.058Z,2.40
2018-01-21T11:44:24.090Z,2.80
2018-01-21T11:45:24.121Z,4.00
2018-01-21T11:46:24.153Z,10.80
2018-01-21T11:47:24.186Z,6.10
2018-01-21T11:48:24.217Z,5.20
2018-01-21T11:49:24.248Z,2.40
2018-01-21T11:50:24.278Z,2.60
2018-01-21T11:51:24.312Z,2.80
2018-01-21T11:52:24.349Z,4.80
2018-01-21T11:53:24.375Z,3.00
2018-01-21T11:54:24.406Z,5.40
2018-01-21T11:55:24.438Z,4.70
2018-01-21T11:56:24.471Z,3.70
2018-01-21T11:57:24.502Z,3.40
2018-01-21T11:58:24.536Z,2.70
2018-01-21T11:59:24.569Z,4.00
2018-01-21T12:00:24.601Z,6.00
2018-01-21T12:01:24.631Z,3.10
2018-01-21T12:02:24.665Z,4.90
2018-01-21T12:03:24.697Z,2.80
2018-01-21T12:04:24.733Z,4.70
2018-01-21T12:05:24.765Z,3.90
2018-01-21T12:06:24.794Z,3.60
2018-01-21T12:07:24.828Z,2.70
2018-01-21T12:08:24.861Z,4.30
2018-01-21T12:09:24.892Z,3.50
2018-01-21T12:10:24.926Z,2.60
2018-01-21T12:11:24.960Z,3.90
2018-01-21T12:12:24.994Z,3.70
2018-01-21T12:13:25.036Z,4.70
2018-01-21T12:14:25.058Z,3.50
2018-01-21T12:15:25.091Z,3.20
2018-01-21T12:16:25.126Z,3.80
2018-01-21T12:17:25.157Z,3.00
2018-01-21T12:18:25.191Z,6.90
2018-01-21T12:19:25.225Z,3.10
2018-01-21T12:20:25.257Z,3.10
2018-01-21T12:21:25.302Z,3.10
2018-01-21T12:22:25.338Z,3.70
2018-01-21T12:23:25.357Z,2.10
2018-01-21T12:24:25.392Z,4.40
2018-01-21T12:25:25.424Z,4.20
2018-01-21T12:26:25.457Z,2.60
2018-01-21T12:27:25.490Z,2.20
2018-01-21T12:28:25.524Z,2.30
2018-01-21T12:29:25.556Z,5.00
2018-01-21T12:30:25.590Z,3.10
2018-01-21T12:31:25.622Z,3.50
2018-01-21T12:32:25.654Z,2.30
2018-01-21T12:33:25.689Z,2.50
2018-01-21T12:34:25.721Z,4.50
2018-01-21T12:35:25.757Z,2.90
2018-01-21T12:36:25.791Z,4.20
2018-01-21T12:37:25.825Z,3.20
2018-01-21T12:38:25.874Z,3.90
2018-01-21T12:39:25.894Z,2.60
2018-01-21T12:40:25.940Z,2.70
2018-01-21T12:41:25.964Z,2.40
2018-01-21T12:42:25.999Z,2.70
2018-01-21T12:43:26.036Z,2.70
2018-01-21T12:44:26.083Z,2.80
2018-01-21T12:45:26.106Z,2.30
2018-01-21T12:46:26.143Z,6.10
2018-01-21T12:47:26.179Z,2.10
2018-01-21T12:48:26.216Z,2.20
2018-01-21T12:49:26.253Z,3.30
2018-01-21T12:50:26.290Z,3.20
2018-01-21T12:51:26.340Z,3.00
2018-01-21T12:52:26.366Z,2.70
2018-01-21T12:53:26.402Z,2.10
2018-01-21T12:54:26.452Z,3.90
2018-01-21T12:55:26.477Z,2.40
2018-01-21T12:56:26.515Z,3.50
2018-01-21T12:57:26.550Z,3.70
2018-01-21T12:58:26.590Z,2.10
2018-01-21T12:59:26.624Z,3.90
2018-01-21T13:00:26.662Z,5.90
2018-01-21T13:01:26.695Z,2.80
2018-01-21T13:02:26.732Z,3.20
2018-01-21T13:03:26.769Z,2.40
2018-01-21T13:04:26.804Z,6.20
2018-01-21T13:05:26.854Z,2.60
2018-01-21T13:06:26.876Z,3.10
2018-01-21T13:07:26.925Z,2.40
2018-01-21T13:08:26.960Z,3.90
2018-01-21T13:09:26.985Z,3.40
2018-01-21T13:10:27.020Z,4.00
2018-01-21T13:11:27.056Z,3.70
2018-01-21T13:12:27.092Z,2.00
2018-01-21T13:13:27.140Z,5.20
2018-01-21T13:14:27.164Z,5.50
2018-01-21T13:15:27.212Z,3.80
2018-01-21T13:16:27.236Z,3.40
2018-01-21T13:17:27.290Z,3.70
2018-01-21T13:18:27.308Z,3.50